Aérodrome :
LOGIN :

S'inscrire | Disclaimer

   EN    FR    IT 

 










Légende :    VFR   VFR Marginal   IFR   IFR Intensif   IFR Très Intensif
Visi : 
Plafond : 
>= 8 km
>= 3000ft
5 à 8 km
1000 à 3000 ft
1500m à 5 km
500 à 1000 ft
800 à 1500m
200 à 500 ft
< 800m
< 200 ft
Symboles :   Orages  Brouillard  Fortes neiges  Fortes précipitations  Vent > 20 kt
SIGMETs :   Divers  Orages  Givrage  Turbulence  Onde Orograph.  Cendres Volcan.







- Altitude de l'aérodrome : 1234 ft
- Code IATA : LUX


ELLX - Luxembourg Findel

DERNIER METAR :
  • 212350Z 17008KT 3000 -RASN BKN001 00/00 Q1009 NOSIG

METARs EXPIRÉS :
  • 212320Z 16008KT 130V190 3500 -RASN SCT000 BKN003 00/00 Q1010 NOSIG
  • 212250Z 15007KT 3000 -RASN SCT001 BKN003 00/M00 Q1011 NOSIG
  • 212220Z 15008KT 2000 -SN SCT001 BKN003 00/00 Q1011 R24/550253 NOSIG
  • 212150Z 15008KT 2000 -SN SCT001 BKN002 00/00 Q1011 NOSIG
  • 212120Z 17009KT 3000 -SNRA FEW002 BKN003 00/00 Q1012 NOSIG

TAF TAF ELLX
Valide du 22 à 00h jusqu'au 23 à 06h UTC


212300Z 2200/2306 16008KT 2500 -RASN BKN003
BECMG 2200/2202 27006KT 3500 BR -DZ BKN006
TEMPO 2202/2214 0800 FG -DZ BKN002
TEMPO 2214/2221 6000 BKN009
BECMG 2223/2301 23005KT
TEMPO 2302/2306 1500 BR BKN004
ATIS : +352 4798 27300
Météo : +352 4798 27010 / 27050
Pas de NOTAMs connus pour ce terrain.



MET'MAP, la Météo Aéronautique d'un coup d'oeil ! - Copyright ORBIFLY Décembre 2007 - Disclaimer

ORBIFLY MET'MAP TEAM :

Programmation & Développement : Alexandra Zaïnal
Conception & Développement : Baudouin d'Aumeries
Co-Programmation & Développement : Marc-Olivier Méhu
Soutien technique & logistique : Manuel Goepfert

Contact : metmap@orbifly.com




SOURCES & CREDITS :

   NOAA